Latest Weather Observations for Thevenard

IDS60801

Issued at 4:01 pm CST Thursday 5 May 2016 (issued every 30 minutes, with the page automatically refreshed every 10 minutes)

About weather observations | Map of weather stations | Latest weather observations for SA | Other Formats
Station Details ID: 018200 Name: THEVENARD WIND Lat: -32.18 Lon: 133.63 Height: 8.54 m
Data from the previous 72 hours. | See also: Recent months for locations in South Australia
Date/Time
CST
Temp
°C
App
Temp
°C
Dew
Point
Rel
Hum
%
Delta-T
°C
Wind Press
QNH
hPa
Press
MSL
hPa
Rain
since 9 am
mm
Dir
 
Spd
km/h
Gust
km/h
Spd
kts
Gust
kts
05/04:00pm - - - - - SSW 11 13 6 7 - - -
05/03:30pm - - - - - SSW 9 13 5 7 - - -
05/03:00pm - - - - - SSW 15 19 8 10 - - -
05/02:30pm - - - - - SSW 9 15 5 8 - - -
05/02:00pm - - - - - W 24 28 13 15 - - -
05/01:30pm - - - - - WNW 20 28 11 15 - - -
05/01:00pm - - - - - NW 20 28 11 15 - - -
05/12:30pm - - - - - N 19 22 10 12 - - -
05/12:00pm - - - - - N 22 24 12 13 - - -
05/11:30am - - - - - N 24 28 13 15 - - -
05/11:00am - - - - - N 20 24 11 13 - - -
05/10:30am - - - - - N 24 30 13 16 - - -
05/10:00am - - - - - N 24 30 13 16 - - -
05/09:30am - - - - - N 28 32 15 17 - - -
05/09:00am - - - - - N 24 28 13 15 - - -
05/08:30am - - - - - N 20 24 11 13 - - -
05/08:00am - - - - - N 20 28 11 15 - - -
05/07:30am - - - - - N 20 24 11 13 - - -
05/07:00am - - - - - NNE 26 32 14 17 - - -
05/06:30am - - - - - NNE 22 28 12 15 - - -
05/06:00am - - - - - NNE 22 26 12 14 - - -
05/05:30am - - - - - NNE 20 24 11 13 - - -
05/05:00am - - - - - NNE 22 26 12 14 - - -
05/04:30am - - - - - NNE 17 22 9 12 - - -
05/04:00am - - - - - NE 13 17 7 9 - - -
05/03:30am - - - - - NE 11 11 6 6 - - -
05/03:00am - - - - - NE 13 15 7 8 - - -
05/02:30am - - - - - NE 19 22 10 12 - - -
05/02:00am - - - - - NE 19 20 10 11 - - -
05/01:30am - - - - - NE 19 22 10 12 - - -
05/01:00am - - - - - NE 24 28 13 15 - - -
05/12:30am - - - - - NE 19 20 10 11 - - -
05/12:00am - - - - - NE 19 20 10 11 - - -
 
Date/Time
CST
Temp
°C
App
Temp
°C
Dew
Point
Rel
Hum
%
Delta-T
°C
Wind Press
QNH
hPa
Press
MSL
hPa
Rain
since 9 am
mm
Dir
 
Spd
km/h
Gust
km/h
Spd
kts
Gust
kts
04/11:30pm - - - - - NE 19 20 10 11 - - -
04/11:00pm - - - - - NE 17 19 9 10 - - -
04/10:30pm - - - - - NE 15 17 8 9 - - -
04/10:00pm - - - - - NE 15 19 8 10 - - -
04/09:30pm - - - - - NE 15 17 8 9 - - -
04/09:00pm - - - - - NE 13 15 7 8 - - -
04/08:30pm - - - - - ENE 9 13 5 7 - - -
04/08:00pm - - - - - NE 9 11 5 6 - - -
04/07:30pm - - - - - ENE 6 9 3 5 - - -
04/07:00pm - - - - - E 6 7 3 4 - - -
04/06:30pm - - - - - S 13 15 7 8 - - -
04/06:00pm - - - - - SSW 19 24 10 13 - - -
04/05:30pm - - - - - SSW 20 24 11 13 - - -
04/05:00pm - - - - - SSW 13 17 7 9 - - -
04/04:30pm - - - - - SSW 15 19 8 10 - - -
04/04:00pm - - - - - SSW 17 19 9 10 - - -
04/03:30pm - - - - - SSW 19 22 10 12 - - -
04/03:00pm - - - - - SSW 17 20 9 11 - - -
04/02:30pm - - - - - SSW 17 20 9 11 - - -
04/02:00pm - - - - - SSW 15 17 8 9 - - -
04/01:30pm - - - - - SW 17 22 9 12 - - -
04/01:00pm - - - - - WSW 19 20 10 11 - - -
04/12:30pm - - - - - WSW 13 17 7 9 - - -
04/12:00pm - - - - - WNW 20 22 11 12 - - -
04/11:30am - - - - - WNW 13 17 7 9 - - -
04/11:00am - - - - - NNW 11 13 6 7 - - -
04/10:30am - - - - - NW 11 13 6 7 - - -
04/10:00am - - - - - NNW 13 15 7 8 - - -
04/09:30am - - - - - NNW 15 19 8 10 - - -
04/09:00am - - - - - NW 15 17 8 9 - - -
04/08:30am - - - - - NW 13 17 7 9 - - -
04/08:00am - - - - - NW 9 17 5 9 - - -
04/07:30am - - - - - WNW 9 19 5 10 - - -
04/07:00am - - - - - SSW 9 11 5 6 - - -
04/06:30am - - - - - SSW 19 20 10 11 - - -
04/06:00am - - - - - WSW 13 19 7 10 - - -
04/05:30am - - - - - W 13 19 7 10 - - -
04/05:00am - - - - - WNW 17 20 9 11 - - -
04/04:30am - - - - - WNW 15 19 8 10 - - -
04/04:00am - - - - - WNW 17 20 9 11 - - -
04/03:30am - - - - - WNW 13 17 7 9 - - -
04/03:00am - - - - - WNW 17 19 9 10 - - -
04/02:30am - - - - - W 13 15 7 8 - - -
04/02:00am - - - - - WNW 11 15 6 8 - - -
04/01:30am - - - - - WNW 11 13 6 7 - - -
04/01:00am - - - - - SW 17 19 9 10 - - -
04/12:30am - - - - - SSW 20 28 11 15 - - -
04/12:00am - - - - - SSW 22 30 12 16 - - -
 
Date/Time
CST
Temp
°C
App
Temp
°C
Dew
Point
Rel
Hum
%
Delta-T
°C
Wind Press
QNH
hPa
Press
MSL
hPa
Rain
since 9 am
mm
Dir
 
Spd
km/h
Gust
km/h
Spd
kts
Gust
kts
03/11:30pm - - - - - SW 17 20 9 11 - - -
03/11:00pm - - - - - SSW 17 22 9 12 - - -
03/10:30pm - - - - - SSW 20 28 11 15 - - -
03/10:00pm - - - - - SSW 15 19 8 10 - - -
03/09:30pm - - - - - SW 15 19 8 10 - - -
03/09:00pm - - - - - SSW 13 17 7 9 - - -
03/08:30pm - - - - - WSW 22 28 12 15 - - -
03/08:00pm - - - - - WSW 17 20 9 11 - - -
03/07:30pm - - - - - WSW 19 24 10 13 - - -
03/07:00pm - - - - - SSW 22 33 12 18 - - -
03/06:30pm - - - - - WSW 15 19 8 10 - - -
03/06:00pm - - - - - SW 19 22 10 12 - - -
03/05:30pm - - - - - SW 28 43 15 23 - - -
03/05:00pm - - - - - SW 28 35 15 19 - - -
03/04:30pm - - - - - WSW 32 39 17 21 - - -
03/04:00pm - - - - - WSW 30 41 16 22 - - -
03/03:30pm - - - - - WSW 30 35 16 19 - - -
03/03:00pm - - - - - SW 33 39 18 21 - - -
03/02:30pm - - - - - WSW 28 35 15 19 - - -
03/02:00pm - - - - - WSW 35 41 19 22 - - -
03/01:30pm - - - - - WSW 26 32 14 17 - - -
03/01:00pm - - - - - W 22 26 12 14 - - -
03/12:30pm - - - - - W 26 32 14 17 - - -
03/12:00pm - - - - - WSW 33 43 18 23 - - -
03/11:39am - - - - - WSW 26 44 14 24 - - -
03/11:30am - - - - - W 22 28 12 15 - - -
03/11:00am - - - - - W 24 28 13 15 - - -
03/10:30am - - - - - W 35 46 19 25 - - -
03/10:00am - - - - - W 30 35 16 19 - - -
03/09:30am - - - - - W 30 35 16 19 - - -
03/09:00am - - - - - WNW 32 39 17 21 - - -
03/08:30am - - - - - NW 32 35 17 19 - - -
03/08:00am - - - - - NW 32 37 17 20 - - -
03/07:30am - - - - - NW 32 35 17 19 - - -
03/07:00am - - - - - NW 26 32 14 17 - - -
03/06:30am - - - - - NW 30 35 16 19 - - -
03/06:00am - - - - - NW 28 32 15 17 - - -
03/05:30am - - - - - NW 28 33 15 18 - - -
03/05:00am - - - - - NW 28 32 15 17 - - -
03/04:30am - - - - - NW 28 32 15 17 - - -
03/04:00am - - - - - NW 26 30 14 16 - - -
03/03:30am - - - - - NW 24 30 13 16 - - -
03/03:00am - - - - - WNW 24 32 13 17 - - -
03/02:30am - - - - - WNW 26 30 14 16 - - -
03/02:00am - - - - - NW 22 28 12 15 - - -
03/01:30am - - - - - NW 24 28 13 15 - - -
03/01:00am - - - - - NW 22 26 12 14 - - -
03/12:30am - - - - - NW 20 24 11 13 - - -
03/12:00am - - - - - NW 20 24 11 13 - - -
 
Date/Time
CST
Temp
°C
App
Temp
°C
Dew
Point
Rel
Hum
%
Delta-T
°C
Wind Press
QNH
hPa
Press
MSL
hPa
Rain
since 9 am
mm
Dir
 
Spd
km/h
Gust
km/h
Spd
kts
Gust
kts
02/11:30pm - - - - - NW 20 22 11 12 - - -
02/11:00pm - - - - - NW 20 24 11 13 - - -
02/10:30pm - - - - - NW 17 20 9 11 - - -
02/10:00pm - - - - - NW 17 19 9 10 - - -
02/09:30pm - - - - - WNW 17 19 9 10 - - -
02/09:00pm - - - - - NW 15 19 8 10 - - -
02/08:30pm - - - - - W 19 22 10 12 - - -
02/08:00pm - - - - - WSW 22 26 12 14 - - -
02/07:30pm - - - - - WSW 24 28 13 15 - - -
02/07:00pm - - - - - WSW 24 28 13 15 - - -
02/06:30pm - - - - - WSW 30 35 16 19 - - -
02/06:00pm - - - - - WSW 35 41 19 22 - - -
02/05:30pm - - - - - SW 37 43 20 23 - - -
02/05:00pm - - - - - SW 33 43 18 23 - - -
02/04:30pm - - - - - SW 32 39 17 21 - - -

Other Formats:

Comma delimited format used in spreadsheet applications
http://www.bom.gov.au/fwo/IDS60801/IDS60801.95653.axf

JavaScript Object Notation format (JSON) in row-major order
http://www.bom.gov.au/fwo/IDS60801/IDS60801.95653.json